createdAt,value
2018-05-09T00:00:01.809Z,39.48
2018-05-09T00:02:29.251Z,39.89
2018-05-09T00:04:56.631Z,39.86
2018-05-09T00:07:24.003Z,39.63
2018-05-09T00:09:51.402Z,39.44
2018-05-09T00:12:18.787Z,39.57
2018-05-09T00:14:46.179Z,39.65
2018-05-09T00:17:13.563Z,40.40
2018-05-09T00:19:40.946Z,40.02
2018-05-09T00:22:08.596Z,40.67
2018-05-09T00:24:36.146Z,41.23
2018-05-09T00:27:03.519Z,40.75
2018-05-09T00:29:30.904Z,40.88
2018-05-09T00:31:58.278Z,40.55
2018-05-09T00:34:25.663Z,40.48
2018-05-09T00:36:53.031Z,41.22
2018-05-09T00:39:20.431Z,41.09
2018-05-09T00:41:47.915Z,40.96
2018-05-09T00:44:15.231Z,40.94
2018-05-09T00:46:42.604Z,40.56
2018-05-09T00:49:10.000Z,40.52
2018-05-09T00:51:37.388Z,40.47
2018-05-09T00:54:16.506Z,40.19
2018-05-09T00:56:43.885Z,40.71
2018-05-09T00:59:11.270Z,40.67
2018-05-09T01:01:38.652Z,41.03
2018-05-09T01:04:06.390Z,40.13
2018-05-09T01:06:33.773Z,39.77
2018-05-09T01:09:01.148Z,40.56
2018-05-09T01:11:28.535Z,40.86
2018-05-09T01:13:55.907Z,41.26
2018-05-09T01:16:23.298Z,41.53
2018-05-09T01:18:50.682Z,41.28
2018-05-09T01:21:18.052Z,41.65
2018-05-09T01:23:45.434Z,41.65
2018-05-09T01:26:12.798Z,41.58
2018-05-09T01:28:40.192Z,41.15
2018-05-09T01:31:07.576Z,41.52
2018-05-09T01:33:34.969Z,41.50
2018-05-09T01:36:02.334Z,41.34
2018-05-09T01:38:30.048Z,41.23
2018-05-09T01:40:57.420Z,41.23
2018-05-09T01:43:24.803Z,41.40
2018-05-09T01:45:52.207Z,40.91
2018-05-09T01:48:19.587Z,41.69
2018-05-09T01:50:46.972Z,41.42
2018-05-09T01:53:14.350Z,41.30
2018-05-09T01:55:41.722Z,41.38
2018-05-09T01:58:09.102Z,41.49
2018-05-09T02:00:36.695Z,41.14
2018-05-09T02:03:04.080Z,40.85
2018-05-09T02:05:31.454Z,41.04
2018-05-09T02:07:58.958Z,41.13
2018-05-09T02:10:26.332Z,41.22
2018-05-09T02:12:53.703Z,41.21
2018-05-09T02:15:21.087Z,41.18
2018-05-09T02:17:49.894Z,41.05
2018-05-09T02:20:17.278Z,41.06
2018-05-09T02:22:44.655Z,40.93
2018-05-09T02:25:12.055Z,41.11
2018-05-09T02:27:39.432Z,41.38
2018-05-09T02:30:06.912Z,41.19
2018-05-09T02:32:34.280Z,41.01
2018-05-09T02:35:01.679Z,40.89
2018-05-09T02:37:29.052Z,41.25
2018-05-09T02:39:56.448Z,40.93
2018-05-09T02:42:23.839Z,41.03
2018-05-09T02:44:51.212Z,41.14
2018-05-09T02:47:18.592Z,41.11
2018-05-09T02:49:45.966Z,40.77
2018-05-09T02:52:13.352Z,41.61
2018-05-09T02:54:40.723Z,41.27
2018-05-09T02:57:08.105Z,41.07
2018-05-09T02:59:35.532Z,41.25
2018-05-09T03:02:02.970Z,40.94
2018-05-09T03:04:30.353Z,41.42
2018-05-09T03:06:57.732Z,41.56
2018-05-09T03:09:25.119Z,41.17
2018-05-09T03:11:52.497Z,41.39
2018-05-09T03:14:19.862Z,41.54
2018-05-09T03:16:47.243Z,41.42
2018-05-09T03:19:14.654Z,41.64
2018-05-09T03:21:42.027Z,41.89
2018-05-09T03:24:09.415Z,41.36
2018-05-09T03:26:37.106Z,42.01
2018-05-09T03:29:04.486Z,41.98
2018-05-09T03:31:31.867Z,41.47
2018-05-09T03:33:59.250Z,41.75
2018-05-09T03:36:26.621Z,41.22
2018-05-09T03:38:54.074Z,40.86
2018-05-09T03:41:21.383Z,41.96
2018-05-09T03:43:48.771Z,43.02
2018-05-09T03:46:16.146Z,42.99
2018-05-09T03:48:43.523Z,42.88
2018-05-09T03:51:10.899Z,43.08
2018-05-09T03:53:38.278Z,42.98
2018-05-09T03:56:05.703Z,43.57
2018-05-09T03:58:33.107Z,43.71
2018-05-09T04:01:00.516Z,43.92
2018-05-09T04:03:39.706Z,43.56
2018-05-09T04:06:18.988Z,43.64
2018-05-09T04:11:47.300Z,43.94
2018-05-09T04:14:14.657Z,44.19
2018-05-09T04:16:42.038Z,45.02
2018-05-09T04:19:09.420Z,45.06
2018-05-09T04:21:37.419Z,45.27
2018-05-09T04:24:04.790Z,45.81
2018-05-09T04:26:32.168Z,45.88
2018-05-09T04:28:59.542Z,45.93
2018-05-09T04:31:26.933Z,46.22
2018-05-09T04:33:54.310Z,45.38
2018-05-09T04:36:21.757Z,45.71
2018-05-09T04:38:49.086Z,46.44
2018-05-09T04:41:16.487Z,46.54
2018-05-09T04:43:43.941Z,46.83
2018-05-09T04:46:11.468Z,46.52
2018-05-09T04:48:38.892Z,46.88
2018-05-09T04:51:06.374Z,47.21
2018-05-09T04:53:33.801Z,46.67
2018-05-09T04:56:01.188Z,46.32
2018-05-09T04:58:28.706Z,47.00
2018-05-09T05:00:56.127Z,47.71
2018-05-09T05:03:23.514Z,47.50
2018-05-09T05:05:51.053Z,47.02
2018-05-09T05:08:18.467Z,46.89
2018-05-09T05:10:45.872Z,47.04
2018-05-09T05:13:13.260Z,47.16
2018-05-09T05:15:41.048Z,47.09
2018-05-09T05:18:08.331Z,47.07
2018-05-09T05:20:35.773Z,47.34
2018-05-09T05:23:03.172Z,47.31
2018-05-09T05:25:30.672Z,47.58
2018-05-09T05:27:59.036Z,46.89
2018-05-09T05:30:26.416Z,46.78
2018-05-09T05:32:53.778Z,46.65
2018-05-09T05:35:21.186Z,47.01
2018-05-09T05:37:48.570Z,46.65
2018-05-09T05:40:16.109Z,46.48
2018-05-09T05:42:43.535Z,46.59
2018-05-09T05:45:11.018Z,46.20
2018-05-09T05:47:38.320Z,46.86
2018-05-09T05:50:05.699Z,46.75
2018-05-09T05:52:33.085Z,46.65
2018-05-09T05:55:00.643Z,46.66
2018-05-09T05:57:28.051Z,46.66
2018-05-09T05:59:55.515Z,46.91
2018-05-09T06:02:22.900Z,46.66
2018-05-09T06:04:50.278Z,46.77
2018-05-09T06:07:17.655Z,46.67
2018-05-09T06:09:45.034Z,46.19
2018-05-09T06:12:12.430Z,45.77
2018-05-09T06:14:39.815Z,45.95
2018-05-09T06:17:08.068Z,45.92
2018-05-09T06:19:35.624Z,45.34
2018-05-09T06:22:03.018Z,45.08
2018-05-09T06:24:30.392Z,45.10
2018-05-09T06:26:57.765Z,45.21
2018-05-09T06:29:25.161Z,44.75
2018-05-09T06:31:53.401Z,44.52
2018-05-09T06:34:20.793Z,44.95
2018-05-09T06:36:48.165Z,44.60
2018-05-09T06:39:15.567Z,44.43
2018-05-09T06:41:42.959Z,44.32
2018-05-09T06:44:10.326Z,44.40
2018-05-09T06:46:38.263Z,44.72
2018-05-09T06:49:05.694Z,44.47
2018-05-09T06:51:33.109Z,44.45
2018-05-09T06:54:00.495Z,44.48
2018-05-09T06:56:27.875Z,44.70
2018-05-09T06:58:55.276Z,45.02
2018-05-09T07:01:22.655Z,44.72
2018-05-09T07:03:50.024Z,45.40
2018-05-09T07:06:17.507Z,45.40
2018-05-09T07:08:44.775Z,45.01
2018-05-09T07:11:12.151Z,44.42
2018-05-09T07:13:39.529Z,44.11
2018-05-09T07:16:06.914Z,44.19
2018-05-09T07:18:34.287Z,44.09
2018-05-09T07:21:01.667Z,44.13
2018-05-09T07:23:29.059Z,43.95
2018-05-09T07:25:56.443Z,44.32
2018-05-09T07:28:23.821Z,44.68
2018-05-09T07:30:51.219Z,44.76
2018-05-09T07:33:18.598Z,44.69
2018-05-09T07:35:45.981Z,44.60
2018-05-09T07:38:13.358Z,44.54
2018-05-09T07:40:40.755Z,43.82
2018-05-09T07:43:08.552Z,43.76
2018-05-09T07:45:35.939Z,43.58
2018-05-09T07:48:03.331Z,43.14
2018-05-09T07:50:30.706Z,42.92
2018-05-09T07:52:58.087Z,42.21
2018-05-09T07:55:25.504Z,42.28
2018-05-09T07:57:52.862Z,42.46
2018-05-09T08:00:20.249Z,42.47
2018-05-09T08:02:47.628Z,42.52
2018-05-09T08:05:15.011Z,42.04
2018-05-09T08:07:42.413Z,42.14
2018-05-09T08:10:09.793Z,41.73
2018-05-09T08:12:37.180Z,41.86
2018-05-09T08:15:04.584Z,41.55
2018-05-09T08:17:31.966Z,41.82
2018-05-09T08:19:59.340Z,41.82
2018-05-09T08:22:26.727Z,41.15
2018-05-09T08:24:54.111Z,41.14
2018-05-09T08:27:21.491Z,41.31
2018-05-09T08:29:48.875Z,41.22
2018-05-09T08:32:16.256Z,40.80
2018-05-09T08:34:43.642Z,40.95
2018-05-09T08:37:11.019Z,40.89
2018-05-09T08:39:38.884Z,40.92
2018-05-09T08:42:06.263Z,40.55
2018-05-09T08:44:33.671Z,40.77
2018-05-09T08:47:01.052Z,40.83
2018-05-09T08:49:28.456Z,40.73
2018-05-09T08:51:55.848Z,40.74
2018-05-09T08:54:23.251Z,40.45
2018-05-09T08:56:50.620Z,40.59
2018-05-09T08:59:18.004Z,40.12
2018-05-09T09:01:45.379Z,40.43
2018-05-09T09:04:12.811Z,40.31
2018-05-09T09:06:40.148Z,40.21
2018-05-09T09:09:07.532Z,40.19
2018-05-09T09:11:34.904Z,40.31
2018-05-09T09:14:02.307Z,40.11
2018-05-09T09:16:29.687Z,40.10
2018-05-09T09:18:57.060Z,40.11
2018-05-09T09:21:24.444Z,40.37
2018-05-09T09:23:51.815Z,40.20
2018-05-09T09:26:19.202Z,40.18
2018-05-09T09:28:46.584Z,39.66
2018-05-09T09:31:14.075Z,39.54
2018-05-09T09:33:41.459Z,39.73
2018-05-09T09:36:09.208Z,39.96
2018-05-09T09:38:36.583Z,39.89
2018-05-09T09:41:04.002Z,39.87
2018-05-09T09:43:31.384Z,39.81
2018-05-09T09:45:58.894Z,39.63
2018-05-09T09:48:26.284Z,39.02
2018-05-09T09:50:53.659Z,38.86
2018-05-09T09:53:21.053Z,36.94
2018-05-09T09:55:49.301Z,38.07
2018-05-09T09:58:16.698Z,38.13
2018-05-09T10:00:44.128Z,37.92
2018-05-09T10:03:11.546Z,37.76
2018-05-09T10:05:39.364Z,37.32
2018-05-09T10:08:06.820Z,37.50
2018-05-09T10:10:34.144Z,37.83
2018-05-09T10:13:01.578Z,37.05
2018-05-09T10:15:28.943Z,36.87
2018-05-09T10:17:56.365Z,37.21
2018-05-09T10:20:23.928Z,37.35
2018-05-09T10:22:51.379Z,36.02
2018-05-09T10:25:18.931Z,36.79
2018-05-09T10:27:46.323Z,36.61
2018-05-09T10:30:13.714Z,36.19
2018-05-09T10:32:41.099Z,36.98
2018-05-09T10:35:09.539Z,36.94
2018-05-09T10:37:36.927Z,36.76
2018-05-09T10:40:04.313Z,36.74
2018-05-09T10:42:31.689Z,36.19
2018-05-09T10:44:59.070Z,36.15
2018-05-09T10:47:26.532Z,36.38
2018-05-09T10:49:53.834Z,36.59
2018-05-09T10:52:21.214Z,36.62
2018-05-09T10:54:48.687Z,36.06
2018-05-09T10:57:16.247Z,36.09
2018-05-09T10:59:44.480Z,35.07
2018-05-09T11:02:11.914Z,35.42
2018-05-09T11:04:39.623Z,34.69
2018-05-09T11:07:07.012Z,35.39
2018-05-09T11:09:34.551Z,34.42
2018-05-09T11:12:02.264Z,34.70
2018-05-09T11:14:29.785Z,35.05
2018-05-09T11:16:57.162Z,34.65
2018-05-09T11:19:24.551Z,34.74
2018-05-09T11:21:51.928Z,34.84
2018-05-09T11:24:19.352Z,34.74
2018-05-09T11:26:46.788Z,34.65
2018-05-09T11:29:14.171Z,34.20
2018-05-09T11:31:41.799Z,33.68
2018-05-09T11:34:10.190Z,33.90
2018-05-09T11:36:37.684Z,34.43
2018-05-09T11:39:06.131Z,34.51
2018-05-09T11:41:33.523Z,34.32
2018-05-09T11:44:00.921Z,34.00
2018-05-09T11:46:28.320Z,33.15
2018-05-09T11:48:55.700Z,32.91
2018-05-09T11:51:23.258Z,31.92
2018-05-09T11:53:50.759Z,32.01
2018-05-09T11:56:18.152Z,32.93
2018-05-09T11:58:45.552Z,33.42
2018-05-09T12:01:12.940Z,33.08
2018-05-09T12:03:40.481Z,31.70
2018-05-09T12:06:07.860Z,31.48
2018-05-09T12:08:35.274Z,29.90
2018-05-09T12:11:02.654Z,29.01
2018-05-09T12:13:30.050Z,26.90
2018-05-09T12:15:57.783Z,26.10
2018-05-09T12:18:25.246Z,26.00
2018-05-09T12:20:52.549Z,25.75
2018-05-09T12:23:19.951Z,26.14
2018-05-09T12:25:47.490Z,25.05
2018-05-09T12:28:14.870Z,26.66
2018-05-09T12:30:42.253Z,26.79
2018-05-09T12:33:10.056Z,26.06
2018-05-09T12:35:37.464Z,26.72
2018-05-09T12:38:04.865Z,27.98
2018-05-09T12:40:32.540Z,27.97
2018-05-09T12:43:00.144Z,29.05
2018-05-09T12:45:27.569Z,29.42
2018-05-09T12:47:55.532Z,30.23
2018-05-09T12:50:22.916Z,30.58
2018-05-09T12:52:50.324Z,30.51
2018-05-09T12:55:17.721Z,30.98
2018-05-09T12:57:45.100Z,29.42
2018-05-09T13:00:12.487Z,27.34
2018-05-09T13:02:40.215Z,25.86
2018-05-09T13:05:07.593Z,25.05
2018-05-09T13:07:34.975Z,23.58
2018-05-09T13:10:02.388Z,22.21
2018-05-09T13:12:29.796Z,22.52
2018-05-09T13:14:57.177Z,21.87
2018-05-09T13:17:24.565Z,21.89
2018-05-09T13:19:51.981Z,21.57
2018-05-09T13:22:19.327Z,20.86
2018-05-09T13:24:46.710Z,19.82
2018-05-09T13:27:14.103Z,20.10
2018-05-09T13:29:41.482Z,21.24
2018-05-09T13:32:09.146Z,20.66
2018-05-09T13:34:36.543Z,20.14
2018-05-09T13:37:03.931Z,20.09
2018-05-09T13:39:31.315Z,19.99
2018-05-09T13:41:58.734Z,19.68
2018-05-09T13:44:26.122Z,19.31
2018-05-09T13:46:53.483Z,19.43
2018-05-09T13:49:20.876Z,19.25
2018-05-09T13:51:48.260Z,18.81
2018-05-09T13:54:15.671Z,18.66
2018-05-09T13:56:43.047Z,18.48
2018-05-09T13:59:10.460Z,17.99
2018-05-09T14:01:37.876Z,18.88
2018-05-09T14:04:05.261Z,18.17
2018-05-09T14:06:32.643Z,18.17
2018-05-09T14:09:00.037Z,17.64
2018-05-09T14:11:27.424Z,17.70
2018-05-09T14:13:54.828Z,17.17
2018-05-09T14:16:22.199Z,17.52
2018-05-09T14:18:49.588Z,17.50
2018-05-09T14:21:16.955Z,17.93
2018-05-09T14:23:44.838Z,17.66
2018-05-09T14:26:12.211Z,16.94
2018-05-09T14:28:40.595Z,16.60
2018-05-09T14:31:07.976Z,16.02
2018-05-09T14:33:35.390Z,16.47
2018-05-09T14:36:02.788Z,16.56
2018-05-09T14:38:30.610Z,16.08
2018-05-09T14:40:57.998Z,16.21
2018-05-09T14:43:25.368Z,16.55
2018-05-09T14:45:52.760Z,16.36
2018-05-09T14:48:20.130Z,16.00
2018-05-09T14:50:47.513Z,17.74
2018-05-09T14:53:14.894Z,17.39
2018-05-09T14:55:42.285Z,16.54
2018-05-09T14:58:10.886Z,15.45
2018-05-09T15:00:38.643Z,14.86
2018-05-09T15:03:06.028Z,14.87
2018-05-09T15:05:33.438Z,14.84
2018-05-09T15:08:00.813Z,14.44
2018-05-09T15:10:28.205Z,15.25
2018-05-09T15:12:55.575Z,15.08
2018-05-09T15:15:22.938Z,14.89
2018-05-09T15:17:50.326Z,15.03
2018-05-09T15:20:17.697Z,15.06
2018-05-09T15:22:45.084Z,14.76
2018-05-09T15:25:12.459Z,16.09
2018-05-09T15:27:39.859Z,14.85
2018-05-09T15:30:07.235Z,14.93
2018-05-09T15:32:35.871Z,15.26
2018-05-09T15:35:03.268Z,14.47
2018-05-09T15:37:30.718Z,14.65
2018-05-09T15:39:58.079Z,13.92
2018-05-09T15:42:25.460Z,13.91
2018-05-09T15:44:52.879Z,14.82
2018-05-09T15:47:20.250Z,14.74
2018-05-09T15:49:47.625Z,13.63
2018-05-09T15:52:15.008Z,14.87
2018-05-09T15:54:42.474Z,14.61
2018-05-09T15:57:09.861Z,14.61
2018-05-09T15:59:37.242Z,14.47
2018-05-09T16:02:04.620Z,14.34
2018-05-09T16:04:32.013Z,14.48
2018-05-09T16:06:59.400Z,13.59
2018-05-09T16:09:26.774Z,14.96
2018-05-09T16:11:54.154Z,14.53
2018-05-09T16:14:21.551Z,14.64
2018-05-09T16:16:48.924Z,14.63
2018-05-09T16:19:16.311Z,15.63
2018-05-09T16:21:43.688Z,16.67
2018-05-09T16:24:11.088Z,16.95
2018-05-09T16:26:38.467Z,17.58
2018-05-09T16:29:05.856Z,17.71
2018-05-09T16:31:33.228Z,18.74
2018-05-09T16:34:00.608Z,18.75
2018-05-09T16:36:27.978Z,19.16
2018-05-09T16:38:55.366Z,19.78
2018-05-09T16:41:22.743Z,20.15
2018-05-09T16:43:50.130Z,19.14
2018-05-09T16:46:17.530Z,20.01
2018-05-09T16:48:44.920Z,20.18
2018-05-09T16:51:12.288Z,20.14
2018-05-09T16:53:39.696Z,20.55
2018-05-09T16:56:07.091Z,21.04
2018-05-09T16:58:34.482Z,21.14
2018-05-09T17:01:01.858Z,21.21
2018-05-09T17:03:29.271Z,21.68
2018-05-09T17:05:56.643Z,20.64
2018-05-09T17:08:24.022Z,21.79
2018-05-09T17:10:51.408Z,22.11
2018-05-09T17:13:18.888Z,21.72
2018-05-09T17:15:46.282Z,22.61
2018-05-09T17:18:13.663Z,22.43
2018-05-09T17:20:45.475Z,22.57
2018-05-09T17:23:12.855Z,22.85
2018-05-09T17:25:40.233Z,22.96
2018-05-09T17:28:07.610Z,22.70
2018-05-09T17:30:35.021Z,23.47
2018-05-09T17:33:02.387Z,23.09
2018-05-09T17:35:29.783Z,24.12
2018-05-09T17:37:57.151Z,24.00
2018-05-09T17:40:24.532Z,23.44
2018-05-09T17:42:51.914Z,24.01
2018-05-09T17:45:19.541Z,23.79
2018-05-09T17:47:46.960Z,24.72
2018-05-09T17:50:14.363Z,25.03
2018-05-09T17:52:41.741Z,24.94
2018-05-09T17:55:09.298Z,24.82
2018-05-09T17:57:36.671Z,24.95
2018-05-09T18:00:04.222Z,24.09
2018-05-09T18:02:31.604Z,24.77
2018-05-09T18:04:59.338Z,24.80
2018-05-09T18:07:27.784Z,24.47
2018-05-09T18:09:55.158Z,24.36
2018-05-09T18:12:22.531Z,24.58
2018-05-09T18:14:50.244Z,24.99
2018-05-09T18:17:17.694Z,24.80
2018-05-09T18:19:45.094Z,25.41
2018-05-09T18:22:12.464Z,25.35
2018-05-09T18:24:39.901Z,25.43
2018-05-09T18:27:07.267Z,25.09
2018-05-09T18:29:34.666Z,25.63
2018-05-09T18:32:02.043Z,25.50
2018-05-09T18:34:29.422Z,25.83
2018-05-09T18:36:56.807Z,26.00
2018-05-09T18:39:24.204Z,26.22
2018-05-09T18:41:51.580Z,26.71
2018-05-09T18:44:19.064Z,25.93
2018-05-09T18:46:47.105Z,26.42
2018-05-09T18:49:14.484Z,26.70
2018-05-09T18:51:41.895Z,26.66
2018-05-09T18:54:09.329Z,26.35
2018-05-09T18:56:36.715Z,26.61
2018-05-09T18:59:04.235Z,27.11
2018-05-09T19:01:31.620Z,27.24
2018-05-09T19:03:59.015Z,27.79
2018-05-09T19:06:26.470Z,28.20
2018-05-09T19:08:53.831Z,28.61
2018-05-09T19:11:21.214Z,29.06
2018-05-09T19:13:48.597Z,29.37
2018-05-09T19:16:16.037Z,29.75
2018-05-09T19:18:43.384Z,29.96
2018-05-09T19:21:10.815Z,30.47
2018-05-09T19:23:38.219Z,30.77
2018-05-09T19:26:05.603Z,31.47
2018-05-09T19:28:32.992Z,31.64
2018-05-09T19:31:00.380Z,32.44
2018-05-09T19:33:27.768Z,31.54
2018-05-09T19:35:55.200Z,32.67
2018-05-09T19:38:22.582Z,32.88
2018-05-09T19:40:49.990Z,32.63
2018-05-09T19:43:17.374Z,33.31
2018-05-09T19:45:44.777Z,33.45
2018-05-09T19:48:12.211Z,33.83
2018-05-09T19:50:39.665Z,33.80
2018-05-09T19:53:07.061Z,33.71
2018-05-09T19:55:34.463Z,33.40
2018-05-09T19:58:01.859Z,33.78
2018-05-09T20:00:29.266Z,33.76
2018-05-09T20:02:56.674Z,34.57
2018-05-09T20:05:24.048Z,34.02
2018-05-09T20:07:51.434Z,34.20
2018-05-09T20:10:18.824Z,34.17
2018-05-09T20:12:46.216Z,34.26
2018-05-09T20:15:13.599Z,34.11
2018-05-09T20:17:41.001Z,34.22
2018-05-09T20:20:08.425Z,34.24
2018-05-09T20:22:35.816Z,34.23
2018-05-09T20:25:03.237Z,33.96
2018-05-09T20:27:30.703Z,33.94
2018-05-09T20:29:58.083Z,33.99
2018-05-09T20:32:40.176Z,34.40
2018-05-09T20:35:07.552Z,34.33
2018-05-09T20:37:34.975Z,35.05
2018-05-09T20:40:02.358Z,34.52
2018-05-09T20:42:29.745Z,34.28
2018-05-09T20:44:57.126Z,35.18
2018-05-09T20:47:24.502Z,35.45
2018-05-09T20:49:51.897Z,35.18
2018-05-09T20:52:19.266Z,36.04
2018-05-09T20:54:46.664Z,36.84
2018-05-09T20:57:14.039Z,35.89
2018-05-09T20:59:41.435Z,35.80
2018-05-09T21:02:08.818Z,36.12
2018-05-09T21:04:36.195Z,36.09
2018-05-09T21:07:03.570Z,36.31
2018-05-09T21:09:30.954Z,35.90
2018-05-09T21:12:09.364Z,36.67
2018-05-09T21:14:36.842Z,36.71
2018-05-09T21:17:04.138Z,36.58
2018-05-09T21:19:31.530Z,36.08
2018-05-09T21:21:58.905Z,37.22
2018-05-09T21:24:26.290Z,37.03
2018-05-09T21:26:53.670Z,37.06
2018-05-09T21:29:21.101Z,36.75
2018-05-09T21:31:48.452Z,36.59
2018-05-09T21:34:15.825Z,36.81
2018-05-09T21:36:43.207Z,36.67
2018-05-09T21:39:10.580Z,37.19
2018-05-09T21:41:37.979Z,36.89
2018-05-09T21:44:05.708Z,37.26
2018-05-09T21:46:33.092Z,37.23
2018-05-09T21:49:00.474Z,37.70
2018-05-09T21:51:27.908Z,37.73
2018-05-09T21:53:55.276Z,37.46
2018-05-09T21:56:22.963Z,37.05
2018-05-09T21:58:50.377Z,37.63
2018-05-09T22:01:17.788Z,38.13
2018-05-09T22:03:45.168Z,37.78
2018-05-09T22:06:12.999Z,37.34
2018-05-09T22:08:40.367Z,37.30
2018-05-09T22:11:07.887Z,36.89
2018-05-09T22:13:35.400Z,36.64
2018-05-09T22:16:02.816Z,36.03
2018-05-09T22:18:30.348Z,35.82
2018-05-09T22:20:57.730Z,34.62
2018-05-09T22:23:25.130Z,35.34
2018-05-09T22:25:52.789Z,34.47
2018-05-09T22:28:20.296Z,34.63
2018-05-09T22:30:47.671Z,34.47
2018-05-09T22:33:15.072Z,34.78
2018-05-09T22:35:43.313Z,34.79
2018-05-09T22:38:10.670Z,34.25
2018-05-09T22:40:38.056Z,34.02
2018-05-09T22:43:05.463Z,33.64
2018-05-09T22:45:32.828Z,34.23
2018-05-09T22:48:00.371Z,34.12
2018-05-09T22:50:27.930Z,34.32
2018-05-09T22:52:55.333Z,34.41
2018-05-09T22:55:22.892Z,35.46
2018-05-09T22:57:50.277Z,35.83
2018-05-09T23:00:18.656Z,36.86
2018-05-09T23:02:46.036Z,37.64
2018-05-09T23:05:13.408Z,38.12
2018-05-09T23:07:40.797Z,38.57
2018-05-09T23:10:08.371Z,40.64
2018-05-09T23:12:35.742Z,42.80
2018-05-09T23:15:03.138Z,42.83
2018-05-09T23:17:30.590Z,43.28
2018-05-09T23:19:58.135Z,45.50
2018-05-09T23:22:25.581Z,46.71
2018-05-09T23:24:53.011Z,48.03
2018-05-09T23:27:20.387Z,50.91
2018-05-09T23:29:47.771Z,48.12
2018-05-09T23:32:15.156Z,48.97
2018-05-09T23:34:43.842Z,47.16
2018-05-09T23:37:11.232Z,49.51
2018-05-09T23:39:38.627Z,49.06
2018-05-09T23:42:06.010Z,48.54
2018-05-09T23:44:33.384Z,48.32
2018-05-09T23:47:00.767Z,48.87
2018-05-09T23:49:28.145Z,49.03
2018-05-09T23:51:55.678Z,49.25
2018-05-09T23:54:23.266Z,47.77
2018-05-09T23:56:50.945Z,49.04
2018-05-09T23:59:18.533Z,50.25
